Time;durP1;ratioP1;P1;durP2;ratioP2;P2;SDS_P1;SDS_P2;PMS_P1;PMS_P2;Temp;Humidity;BMP_temperature;BMP_pressure;BME280_temperature;BME280_humidity;BME280_pressure;Samples;Min_cycle;Max_cycle;Signal;HPM_P1;HPM_P2
2022/08/30 00:02:54;;;;;;;3.00;1.95;;;;;;;;;;7393625;19;20020;-76
2022/08/30 00:05:19;;;;;;;1.65;1.48;;;;;;;;;;7390103;19;20070;-76
2022/08/30 00:07:45;;;;;;;2.28;1.88;;;;;;;;;;7392466;19;19999;-76
2022/08/30 00:10:11;;;;;;;2.13;1.80;;;;;;;;;;7390341;19;20479;-76
2022/08/30 00:12:37;;;;;;;2.03;1.50;;;;;;;;;;7390644;19;20003;-76
2022/08/30 00:15:05;;;;;;;2.00;1.80;;;;;;;;;;7392224;19;20010;-76
2022/08/30 00:17:31;;;;;;;2.53;1.50;;;;;;;;;;7389979;19;20001;-76
2022/08/30 00:19:57;;;;;;;3.42;1.65;;;;;;;;;;7391307;19;20014;-76
2022/08/30 00:22:22;;;;;;;1.58;1.48;;;;;;;;;;7392209;19;20003;-76
2022/08/30 00:24:48;;;;;;;3.40;2.30;;;;;;;;;;7391959;19;20023;-76
2022/08/30 00:27:14;;;;;;;3.00;1.88;;;;;;;;;;7388973;19;20362;-76
2022/08/30 00:29:39;;;;;;;1.98;1.60;;;;;;;;;;7391290;19;20002;-76
2022/08/30 00:32:05;;;;;;;2.53;1.80;;;;;;;;;;7390458;19;20017;-76
2022/08/30 00:34:31;;;;;;;3.33;2.25;;;;;;;;;;7390012;19;20031;-76
2022/08/30 00:36:58;;;;;;;2.38;2.13;;;;;;;;;;7389820;19;20084;-76
2022/08/30 00:39:23;;;;;;;4.82;2.00;;;;;;;;;;7390067;19;20007;-76
2022/08/30 00:41:48;;;;;;;3.10;2.10;;;;;;;;;;7390992;19;20492;-76
2022/08/30 00:44:14;;;;;;;3.72;2.63;;;;;;;;;;7390493;19;20336;-76
2022/08/30 00:46:39;;;;;;;2.30;2.10;;;;;;;;;;7390460;19;20022;-76
2022/08/30 00:49:07;;;;;;;2.13;1.60;;;;;;;;;;7390797;19;20006;-76
2022/08/30 00:51:33;;;;;;;1.67;1.52;;;;;;;;;;7388935;19;20013;-76
2022/08/30 00:54:00;;;;;;;2.85;2.20;;;;;;;;;;7392434;19;20073;-76
2022/08/30 00:56:27;;;;;;;1.55;1.45;;;;;;;;;;7389613;19;20044;-76
2022/08/30 00:58:56;;;;;;;1.85;1.52;;;;;;;;;;7388071;19;20012;-76
2022/08/30 01:01:22;;;;;;;1.27;1.17;;;;;;;;;;7390738;19;20021;-76
2022/08/30 01:03:48;;;;;;;1.83;1.60;;;;;;;;;;7391625;19;20087;-76
2022/08/30 01:06:14;;;;;;;1.40;1.30;;;;;;;;;;7389858;19;20045;-76
2022/08/30 01:08:40;;;;;;;4.53;1.50;;;;;;;;;;7392383;19;20007;-75
2022/08/30 01:11:06;;;;;;;2.33;1.77;;;;;;;;;;7387395;19;20014;-76
2022/08/30 01:13:33;;;;;;;2.70;2.20;;;;;;;;;;7389190;19;20010;-76
2022/08/30 01:15:59;;;;;;;3.75;2.20;;;;;;;;;;7389310;19;20123;-77
2022/08/30 01:18:25;;;;;;;5.18;2.10;;;;;;;;;;7390783;19;20019;-77
2022/08/30 01:21:07;;;;;;;2.63;2.28;;;;;;;;;;7390075;19;20018;-76
2022/08/30 01:23:35;;;;;;;3.30;2.15;;;;;;;;;;7390960;19;20017;-76
2022/08/30 01:26:01;;;;;;;2.53;1.75;;;;;;;;;;7386766;19;20070;-76
2022/08/30 01:28:28;;;;;;;2.42;1.98;;;;;;;;;;7386558;19;20010;-77
2022/08/30 01:30:53;;;;;;;2.55;1.75;;;;;;;;;;7385188;19;20079;-76
2022/08/30 01:33:19;;;;;;;6.28;2.50;;;;;;;;;;7387160;19;20425;-76
2022/08/30 01:35:56;;;;;;;3.55;2.20;;;;;;;;;;7387372;19;20024;-78
2022/08/30 01:38:25;;;;;;;3.13;2.50;;;;;;;;;;7388527;19;20484;-77
2022/08/30 01:40:59;;;;;;;7.88;2.38;;;;;;;;;;7389668;19;20023;-76
2022/08/30 01:43:26;;;;;;;2.88;2.17;;;;;;;;;;7388779;19;20019;-76
2022/08/30 01:45:51;;;;;;;2.40;2.20;;;;;;;;;;7388976;19;20011;-76
2022/08/30 01:48:17;;;;;;;2.38;1.83;;;;;;;;;;7391182;19;20014;-76
2022/08/30 01:50:42;;;;;;;4.10;2.20;;;;;;;;;;7384705;19;20346;-77
2022/08/30 01:53:08;;;;;;;2.33;1.95;;;;;;;;;;7385734;19;20010;-76
2022/08/30 01:55:34;;;;;;;2.05;1.85;;;;;;;;;;7388869;19;20340;-77
2022/08/30 01:57:59;;;;;;;4.47;2.80;;;;;;;;;;7387452;19;20328;-76
2022/08/30 02:00:25;;;;;;;4.78;2.60;;;;;;;;;;7394106;19;20002;-77
2022/08/30 02:02:51;;;;;;;4.45;2.30;;;;;;;;;;7395868;19;20017;-76
2022/08/30 02:05:17;;;;;;;2.40;2.10;;;;;;;;;;7394438;19;20010;-76
2022/08/30 02:07:42;;;;;;;2.70;2.03;;;;;;;;;;7390941;19;20538;-76
2022/08/30 02:10:08;;;;;;;2.75;2.10;;;;;;;;;;7392345;19;20022;-77
2022/08/30 02:12:34;;;;;;;4.47;1.40;;;;;;;;;;7393667;19;20002;-77
2022/08/30 02:14:59;;;;;;;1.65;1.55;;;;;;;;;;7393904;19;20113;-76
2022/08/30 02:17:25;;;;;;;1.52;1.33;;;;;;;;;;7394173;19;20356;-76
2022/08/30 02:19:51;;;;;;;2.67;2.00;;;;;;;;;;7391367;19;20049;-76
2022/08/30 02:22:16;;;;;;;1.90;1.70;;;;;;;;;;7394091;19;20006;-77
2022/08/30 02:24:41;;;;;;;1.85;1.58;;;;;;;;;;7392254;19;20030;-76
2022/08/30 02:27:07;;;;;;;2.10;1.80;;;;;;;;;;7392555;19;20034;-76
2022/08/30 02:29:32;;;;;;;5.22;2.72;;;;;;;;;;7394481;19;20006;-76
2022/08/30 02:31:58;;;;;;;4.18;1.73;;;;;;;;;;7392903;19;20043;-77
2022/08/30 02:34:23;;;;;;;3.35;2.47;;;;;;;;;;7395847;19;20511;-76
2022/08/30 02:36:49;;;;;;;3.58;2.55;;;;;;;;;;7393852;19;20019;-77
2022/08/30 02:39:14;;;;;;;2.28;1.85;;;;;;;;;;7393526;19;20456;-77
2022/08/30 02:41:41;;;;;;;3.30;2.25;;;;;;;;;;7393715;19;20017;-77
2022/08/30 02:44:07;;;;;;;3.75;2.78;;;;;;;;;;7397018;19;20006;-77
2022/08/30 02:46:33;;;;;;;2.63;2.33;;;;;;;;;;7392369;19;20014;-77
2022/08/30 02:48:58;;;;;;;4.40;2.60;;;;;;;;;;7394189;19;20027;-77
2022/08/30 02:51:24;;;;;;;2.97;2.60;;;;;;;;;;7394049;19;20017;-77
2022/08/30 02:53:50;;;;;;;2.42;1.65;;;;;;;;;;7395093;19;20014;-77
2022/08/30 02:56:15;;;;;;;3.45;2.38;;;;;;;;;;7395486;19;20372;-76
2022/08/30 02:58:42;;;;;;;3.90;2.70;;;;;;;;;;7396168;19;19998;-76
2022/08/30 03:01:11;;;;;;;3.05;1.92;;;;;;;;;;7395800;19;20018;-77
2022/08/30 03:03:38;;;;;;;3.80;2.28;;;;;;;;;;7394319;19;20092;-76
2022/08/30 03:06:03;;;;;;;2.13;1.92;;;;;;;;;;7394301;19;20470;-76
2022/08/30 03:08:30;;;;;;;1.88;1.70;;;;;;;;;;7395831;19;20058;-78
2022/08/30 03:10:56;;;;;;;2.45;2.15;;;;;;;;;;7396352;19;20062;-76
2022/08/30 03:13:22;;;;;;;1.75;1.40;;;;;;;;;;7392943;19;20020;-76
2022/08/30 03:15:49;;;;;;;2.83;1.50;;;;;;;;;;7395324;19;20002;-76
2022/08/30 03:18:15;;;;;;;2.10;1.65;;;;;;;;;;7396291;19;20094;-76
2022/08/30 03:20:40;;;;;;;2.15;1.95;;;;;;;;;;7396364;19;20010;-76
2022/08/30 03:23:06;;;;;;;2.22;1.70;;;;;;;;;;7394732;19;20007;-76
2022/08/30 03:25:32;;;;;;;2.95;2.10;;;;;;;;;;7394464;19;20075;-77
2022/08/30 03:27:58;;;;;;;1.77;1.65;;;;;;;;;;7394281;19;20104;-77
2022/08/30 03:30:24;;;;;;;3.75;1.83;;;;;;;;;;7396173;19;20026;-76
2022/08/30 03:32:50;;;;;;;2.17;1.75;;;;;;;;;;7392305;19;20333;-77
2022/08/30 03:35:17;;;;;;;1.80;1.70;;;;;;;;;;7393272;19;20018;-76
2022/08/30 03:37:43;;;;;;;1.70;1.60;;;;;;;;;;7392579;19;20073;-76
2022/08/30 03:40:09;;;;;;;2.10;1.42;;;;;;;;;;7396356;19;20126;-76
2022/08/30 03:42:35;;;;;;;2.80;1.88;;;;;;;;;;7392655;19;20038;-77
2022/08/30 03:45:03;;;;;;;1.95;1.50;;;;;;;;;;7393516;19;20494;-76
2022/08/30 03:47:29;;;;;;;2.22;1.80;;;;;;;;;;7392738;19;20011;-77
2022/08/30 03:49:54;;;;;;;2.05;1.58;;;;;;;;;;7393837;19;20025;-76
2022/08/30 03:52:20;;;;;;;5.25;2.08;;;;;;;;;;7392446;19;20018;-76
2022/08/30 03:54:45;;;;;;;2.25;1.70;;;;;;;;;;7394720;19;20084;-76
2022/08/30 03:57:11;;;;;;;2.47;2.00;;;;;;;;;;7391091;19;20416;-76
2022/08/30 03:59:36;;;;;;;2.20;1.70;;;;;;;;;;7396520;19;20062;-77
2022/08/30 04:02:02;;;;;;;4.50;2.20;;;;;;;;;;7393966;19;20007;-76
2022/08/30 04:04:27;;;;;;;2.08;1.52;;;;;;;;;;7392002;19;20040;-77
2022/08/30 04:06:54;;;;;;;3.15;2.17;;;;;;;;;;7393569;19;20018;-76
2022/08/30 04:09:19;;;;;;;2.08;1.88;;;;;;;;;;7392097;19;20358;-76
2022/08/30 04:11:45;;;;;;;2.35;2.00;;;;;;;;;;7389483;19;20007;-76
2022/08/30 04:14:10;;;;;;;2.55;1.98;;;;;;;;;;7393580;19;20357;-77
2022/08/30 04:16:36;;;;;;;2.55;2.22;;;;;;;;;;7393713;19;20003;-77
2022/08/30 04:19:01;;;;;;;2.20;1.88;;;;;;;;;;7394103;19;20443;-77
2022/08/30 04:21:27;;;;;;;1.65;1.35;;;;;;;;;;7390535;19;20007;-76
2022/08/30 04:23:52;;;;;;;2.67;1.50;;;;;;;;;;7391295;19;20021;-77
2022/08/30 04:26:18;;;;;;;2.63;1.92;;;;;;;;;;7390019;19;20042;-76
2022/08/30 04:28:43;;;;;;;1.88;1.50;;;;;;;;;;7389526;19;20010;-77
2022/08/30 04:31:10;;;;;;;2.40;1.80;;;;;;;;;;7391766;19;20013;-76
2022/08/30 04:33:36;;;;;;;1.95;1.73;;;;;;;;;;7391374;19;20006;-76
2022/08/30 04:36:04;;;;;;;2.60;2.15;;;;;;;;;;7383497;19;20013;-75
2022/08/30 04:38:31;;;;;;;2.67;2.38;;;;;;;;;;7390698;19;20069;-76
2022/08/30 04:40:57;;;;;;;3.17;2.30;;;;;;;;;;7392047;19;20007;-76
2022/08/30 04:43:25;;;;;;;3.65;2.20;;;;;;;;;;7391029;19;20030;-76
2022/08/30 04:45:52;;;;;;;3.25;2.33;;;;;;;;;;7387818;19;20416;-76
2022/08/30 04:48:18;;;;;;;4.32;2.10;;;;;;;;;;7394264;19;20007;-76
2022/08/30 04:50:44;;;;;;;2.85;2.08;;;;;;;;;;7392144;19;20063;-76
2022/08/30 04:53:09;;;;;;;2.83;1.73;;;;;;;;;;7388966;19;20002;-77
2022/08/30 04:55:35;;;;;;;4.68;2.33;;;;;;;;;;7390073;19;20361;-76
2022/08/30 04:58:01;;;;;;;3.80;2.13;;;;;;;;;;7390367;19;20360;-76
2022/08/30 05:00:26;;;;;;;2.10;1.90;;;;;;;;;;7388426;19;20007;-76
2022/08/30 05:02:52;;;;;;;6.10;2.47;;;;;;;;;;7390569;19;20003;-76
2022/08/30 05:08:01;;;;;;;3.00;1.85;;;;;;;;;;7393319;19;20048;-76
2022/08/30 05:10:27;;;;;;;2.22;1.88;;;;;;;;;;7389169;19;20010;-76
2022/08/30 05:12:53;;;;;;;2.50;1.67;;;;;;;;;;7391592;19;20002;-76
2022/08/30 05:15:21;;;;;;;2.05;1.35;;;;;;;;;;7388286;19;20002;-76
2022/08/30 05:17:46;;;;;;;1.25;1.15;;;;;;;;;;7393922;19;20051;-76
2022/08/30 05:20:12;;;;;;;2.13;1.42;;;;;;;;;;7393132;19;20010;-77
2022/08/30 05:22:40;;;;;;;3.67;1.60;;;;;;;;;;7390053;19;20014;-76
2022/08/30 05:25:06;;;;;;;3.83;1.67;;;;;;;;;;7391501;19;20052;-77
2022/08/30 05:27:32;;;;;;;1.50;1.35;;;;;;;;;;7387242;19;20008;-76
2022/08/30 05:30:01;;;;;;;2.75;1.70;;;;;;;;;;7394290;19;20070;-77
2022/08/30 05:32:32;;;;;;;3.90;1.95;;;;;;;;;;7389800;19;20070;-77
2022/08/30 05:37:29;;;;;;;1.80;1.60;;;;;;;;;;7393914;19;20017;-77
2022/08/30 05:40:23;;;;;;;2.03;1.50;;;;;;;;;;7393903;19;20030;-77
2022/08/30 05:46:46;;;;;;;3.08;1.58;;;;;;;;;;7382410;19;20467;-77
2022/08/30 05:49:39;;;;;;;3.35;2.75;;;;;;;;;;7391130;19;20110;-76
2022/08/30 05:52:30;;;;;;;6.13;2.30;;;;;;;;;;7392933;19;20010;-76
2022/08/30 06:01:30;;;;;;;5.20;3.00;;;;;;;;;;7394465;19;20025;-75
2022/08/30 06:04:45;;;;;;;3.30;2.38;;;;;;;;;;7392281;19;20003;-76
2022/08/30 06:08:04;;;;;;;;;;;;;;;;;;;;;
2022/08/30 06:18:07;;;;;;;3.80;2.97;;;;;;;;;;7392240;19;20372;-77
2022/08/30 06:28:15;;;;;;;4.90;3.03;;;;;;;;;;7386002;19;20019;-76
2022/08/30 06:30:43;;;;;;;6.35;3.33;;;;;;;;;;7386965;19;20070;-76
2022/08/30 06:49:51;;;;;;;;;;;;;;;;;;;;;
2022/08/30 06:52:58;;;;;;;;;;;;;;;;;;;;;
2022/08/30 07:06:23;;;;;;;8.20;4.75;;;;;;;;;;7391629;19;20010;-77
2022/08/30 07:09:44;;;;;;;;;;;;;;;;;;;;;
2022/08/30 07:12:56;;;;;;;7.18;4.45;;;;;;;;;;7383970;19;20028;-77
2022/08/30 07:16:03;;;;;;;10.48;5.18;;;;;;;;;;7383886;19;20483;-77
2022/08/30 07:18:57;;;;;;;7.90;4.35;;;;;;;;;;7387656;19;20010;-77
2022/08/30 07:22:25;;;;;;;6.18;4.32;;;;;;;;;;7392018;19;20086;-77
2022/08/30 07:30:06;;;;;;;5.25;3.58;;;;;;;;;;7392984;19;20075;-77
2022/08/30 07:32:31;;;;;;;7.57;4.43;;;;;;;;;;7392119;19;20032;-77
2022/08/30 07:34:57;;;;;;;7.57;4.93;;;;;;;;;;7393282;19;20003;-77
2022/08/30 07:37:45;;;;;;;6.93;4.25;;;;;;;;;;7391651;19;20011;-76
2022/08/30 07:40:15;;;;;;;7.90;4.88;;;;;;;;;;7394079;19;20023;-77
2022/08/30 07:43:01;;;;;;;6.40;4.50;;;;;;;;;;7393500;19;20037;-76
2022/08/30 07:45:31;;;;;;;6.95;4.55;;;;;;;;;;7390661;19;20022;-76
2022/08/30 07:51:25;;;;;;;6.18;4.68;;;;;;;;;;7397920;19;20410;-78
2022/08/30 07:53:52;;;;;;;6.18;4.60;;;;;;;;;;7398156;19;20010;-77
2022/08/30 07:56:19;;;;;;;6.43;4.43;;;;;;;;;;7395219;19;20054;-77
2022/08/30 07:58:45;;;;;;;6.03;4.78;;;;;;;;;;7397432;19;20006;-77
2022/08/30 08:01:11;;;;;;;7.22;5.03;;;;;;;;;;7396532;19;20019;-77
2022/08/30 08:03:39;;;;;;;5.60;4.43;;;;;;;;;;7395381;19;20020;-78
2022/08/30 08:06:06;;;;;;;5.85;4.45;;;;;;;;;;7395794;19;20037;-78
2022/08/30 08:08:32;;;;;;;6.30;4.40;;;;;;;;;;7398641;19;20010;-78
2022/08/30 08:10:58;;;;;;;5.82;4.30;;;;;;;;;;7396479;19;20034;-77
2022/08/30 08:13:23;;;;;;;7.93;4.47;;;;;;;;;;7395756;19;20042;-77
2022/08/30 08:15:49;;;;;;;8.48;5.68;;;;;;;;;;7397763;19;20010;-77
2022/08/30 08:18:14;;;;;;;13.98;5.05;;;;;;;;;;7398495;19;20467;-77
2022/08/30 08:20:40;;;;;;;8.73;5.18;;;;;;;;;;7396485;19;20013;-77
2022/08/30 08:23:06;;;;;;;6.45;4.53;;;;;;;;;;7394529;19;20401;-76
2022/08/30 08:25:31;;;;;;;6.82;4.97;;;;;;;;;;7394941;19;20002;-76
2022/08/30 08:27:57;;;;;;;6.47;4.38;;;;;;;;;;7394214;19;20002;-77
2022/08/30 08:30:23;;;;;;;6.20;4.05;;;;;;;;;;7395157;19;20006;-77
2022/08/30 08:32:50;;;;;;;7.38;4.05;;;;;;;;;;7390107;19;20020;-77
2022/08/30 08:35:16;;;;;;;5.40;3.70;;;;;;;;;;7395918;19;21437;-77
2022/08/30 08:37:42;;;;;;;6.88;4.03;;;;;;;;;;7394168;19;20022;-77
2022/08/30 08:40:11;;;;;;;5.47;4.00;;;;;;;;;;7391806;19;20420;-77
2022/08/30 08:42:59;;;;;;;4.85;3.65;;;;;;;;;;7391639;19;20006;-76
2022/08/30 08:45:43;;;;;;;4.35;3.88;;;;;;;;;;7393648;19;20014;-77
2022/08/30 08:48:24;;;;;;;6.07;4.28;;;;;;;;;;7393560;19;20011;-77
2022/08/30 08:53:35;;;;;;;4.35;3.55;;;;;;;;;;7395558;19;20036;-77
2022/08/30 08:56:09;;;;;;;5.82;4.40;;;;;;;;;;7394827;19;19999;-77
2022/08/30 08:58:45;;;;;;;5.07;4.10;;;;;;;;;;7394686;19;20003;-77
2022/08/30 09:01:14;;;;;;;5.55;3.60;;;;;;;;;;7389471;19;20376;-76
2022/08/30 09:03:41;;;;;;;5.38;3.40;;;;;;;;;;7381656;19;20035;-78
2022/08/30 09:06:26;;;;;;;3.58;3.10;;;;;;;;;;7383924;19;20051;-77
2022/08/30 09:08:51;;;;;;;8.63;4.00;;;;;;;;;;7396400;19;20010;-77
2022/08/30 09:11:24;;;;;;;4.75;3.35;;;;;;;;;;7391662;19;20003;-77
2022/08/30 09:13:49;;;;;;;3.67;3.10;;;;;;;;;;7396106;19;20159;-77
2022/08/30 09:16:44;;;;;;;4.03;3.22;;;;;;;;;;7396040;19;20044;-78
2022/08/30 09:19:10;;;;;;;7.85;3.20;;;;;;;;;;7397101;19;20052;-76
2022/08/30 09:21:35;;;;;;;8.18;3.05;;;;;;;;;;7394681;19;20002;-77
2022/08/30 09:24:03;;;;;;;3.85;3.05;;;;;;;;;;7397300;19;19999;-77
2022/08/30 09:26:35;;;;;;;6.97;3.10;;;;;;;;;;7393911;19;20006;-77
2022/08/30 09:29:03;;;;;;;5.18;3.28;;;;;;;;;;7395106;19;20003;-77
2022/08/30 09:31:44;;;;;;;5.18;2.85;;;;;;;;;;7398402;19;20427;-78
2022/08/30 09:34:19;;;;;;;3.80;2.60;;;;;;;;;;7401255;19;20007;-78
2022/08/30 09:36:50;;;;;;;5.80;2.92;;;;;;;;;;7398511;19;20019;-78
2022/08/30 09:39:27;;;;;;;3.25;2.65;;;;;;;;;;7397889;19;19999;-77
2022/08/30 09:41:53;;;;;;;3.15;2.30;;;;;;;;;;7394291;19;20350;-78
2022/08/30 09:44:28;;;;;;;5.38;2.72;;;;;;;;;;7397442;19;20006;-77
2022/08/30 09:46:56;;;;;;;4.72;2.65;;;;;;;;;;7396938;19;20519;-78
2022/08/30 09:49:42;;;;;;;3.53;2.50;;;;;;;;;;7398836;19;20032;-77
2022/08/30 09:52:17;;;;;;;4.25;2.17;;;;;;;;;;7396619;19;20027;-78
2022/08/30 09:55:04;;;;;;;3.50;1.95;;;;;;;;;;7399473;19;20077;-78
2022/08/30 09:57:51;;;;;;;3.42;2.40;;;;;;;;;;7397832;19;20030;-78
2022/08/30 10:00:23;;;;;;;3.55;2.53;;;;;;;;;;7398755;19;20536;-78
2022/08/30 10:03:13;;;;;;;5.32;2.53;;;;;;;;;;7396516;19;20007;-77
2022/08/30 10:05:57;;;;;;;3.63;2.38;;;;;;;;;;7394721;19;20027;-78
2022/08/30 10:09:06;;;;;;;3.13;2.30;;;;;;;;;;7396129;19;20006;-78
2022/08/30 10:12:09;;;;;;;2.63;2.00;;;;;;;;;;7390808;19;20017;-78
2022/08/30 10:14:47;;;;;;;2.47;1.73;;;;;;;;;;7397950;19;20011;-77
2022/08/30 10:17:43;;;;;;;3.45;2.17;;;;;;;;;;7394442;19;20002;-77
2022/08/30 10:20:30;;;;;;;3.30;2.53;;;;;;;;;;7397303;19;20344;-77
2022/08/30 10:23:09;;;;;;;2.85;1.95;;;;;;;;;;7397973;19;20302;-78
2022/08/30 10:25:47;;;;;;;1.98;1.77;;;;;;;;;;7394495;19;20074;-78
2022/08/30 10:28:18;;;;;;;4.90;2.42;;;;;;;;;;7397182;19;20114;-77
2022/08/30 10:30:53;;;;;;;3.78;2.17;;;;;;;;;;7397463;19;20014;-78
2022/08/30 10:33:27;;;;;;;3.13;2.05;;;;;;;;;;7400868;19;20002;-78
2022/08/30 10:35:57;;;;;;;4.18;2.08;;;;;;;;;;7396123;19;20384;-78
2022/08/30 10:38:28;;;;;;;2.72;1.90;;;;;;;;;;7395974;19;20018;-78
2022/08/30 10:41:15;;;;;;;4.97;2.10;;;;;;;;;;7395440;19;20085;-77
2022/08/30 10:44:02;;;;;;;2.45;1.85;;;;;;;;;;7398974;19;19990;-77
2022/08/30 10:46:56;;;;;;;2.42;1.83;;;;;;;;;;7396921;19;20011;-78
2022/08/30 10:49:45;;;;;;;3.40;2.00;;;;;;;;;;7398332;19;20044;-77
2022/08/30 10:52:36;;;;;;;2.20;1.80;;;;;;;;;;7395804;19;20466;-78
2022/08/30 10:55:08;;;;;;;2.75;1.77;;;;;;;;;;7400222;19;20005;-77
2022/08/30 11:05:16;;;;;;;2.47;1.83;;;;;;;;;;7395683;19;20051;-78
2022/08/30 11:12:16;;;;;;;;;;;;;;;;;;;;;
2022/08/30 11:18:51;;;;;;;2.75;1.83;;;;;;;;;;7393002;19;19989;-77
2022/08/30 11:25:56;;;;;;;2.10;1.90;;;;;;;;;;7392157;19;20035;-78
2022/08/30 11:29:32;;;;;;;2.58;1.83;;;;;;;;;;7391153;19;20066;-78
2022/08/30 11:33:08;;;;;;;;;;;;;;;;;;;;;
2022/08/30 11:35:52;;;;;;;2.83;1.67;;;;;;;;;;7387900;19;20049;-79
2022/08/30 11:42:35;;;;;;;3.15;1.58;;;;;;;;;;7393959;19;19986;-78
2022/08/30 11:46:10;;;;;;;2.83;1.67;;;;;;;;;;7392328;19;20380;-77
2022/08/30 11:49:47;;;;;;;2.22;1.50;;;;;;;;;;7391996;19;20006;-78
2022/08/30 11:53:02;;;;;;;;;;;;;;;;;;;;;
2022/08/30 11:56:27;;;;;;;;;;;;;;;;;;;;;
2022/08/30 12:03:08;;;;;;;;;;;;;;;;;;;;;
2022/08/30 12:20:30;;;;;;;1.77;1.67;;;;;;;;;;7357917;19;19998;-79
2022/08/30 13:19:18;;;;;;;;;;;;;;;;;;;;;
2022/08/30 13:22:48;;;;;;;;;;;;;;;;;;;;;
2022/08/30 13:32:39;;;;;;;;;;;;;;;;;;;;;
2022/08/30 13:36:23;;;;;;;;;;;;;;;;;;;;;
2022/08/30 13:38:22;;;;;;;3.17;1.48;;;;;;;;;;7379059;19;20018;-77
2022/08/30 13:40:48;;;;;;;2.83;1.80;;;;;;;;;;7386639;19;20066;-78
2022/08/30 13:43:31;;;;;;;2.67;1.73;;;;;;;;;;7339178;19;20007;-77
2022/08/30 13:45:57;;;;;;;2.60;1.45;;;;;;;;;;7382123;19;20014;-77
2022/08/30 13:48:23;;;;;;;2.35;1.63;;;;;;;;;;7387296;19;19995;-77
2022/08/30 13:50:54;;;;;;;2.80;1.80;;;;;;;;;;7386008;19;20417;-77
2022/08/30 13:53:19;;;;;;;2.78;1.70;;;;;;;;;;7388487;19;20017;-76
2022/08/30 13:55:45;;;;;;;1.63;1.52;;;;;;;;;;7394830;19;20024;-78
2022/08/30 13:58:10;;;;;;;2.55;1.20;;;;;;;;;;7343829;19;20049;-77
2022/08/30 14:00:36;;;;;;;3.92;1.77;;;;;;;;;;7383822;19;20011;-77
2022/08/30 14:03:01;;;;;;;1.50;1.40;;;;;;;;;;7394387;19;20348;-77
2022/08/30 14:05:30;;;;;;;1.60;1.50;;;;;;;;;;7393431;19;20014;-77
2022/08/30 14:07:56;;;;;;;1.67;1.48;;;;;;;;;;7397989;19;20011;-77
2022/08/30 14:10:26;;;;;;;2.40;1.50;;;;;;;;;;7396895;19;20020;-77
2022/08/30 14:12:51;;;;;;;2.45;1.55;;;;;;;;;;7396251;19;20436;-77
2022/08/30 14:15:17;;;;;;;2.05;1.42;;;;;;;;;;7397915;19;20127;-77
2022/08/30 14:17:43;;;;;;;1.92;1.60;;;;;;;;;;7396747;19;20014;-77
2022/08/30 14:20:09;;;;;;;1.50;1.40;;;;;;;;;;7395367;19;20014;-76
2022/08/30 14:22:34;;;;;;;2.28;1.45;;;;;;;;;;7394154;19;20471;-77
2022/08/30 14:25:00;;;;;;;2.10;1.40;;;;;;;;;;7397909;19;20002;-76
2022/08/30 14:27:29;;;;;;;1.58;1.48;;;;;;;;;;7394566;19;20002;-77
2022/08/30 14:29:55;;;;;;;2.45;1.58;;;;;;;;;;7398178;19;20014;-76
2022/08/30 14:32:20;;;;;;;1.80;1.60;;;;;;;;;;7391733;19;20459;-77
2022/08/30 14:34:45;;;;;;;2.30;1.73;;;;;;;;;;7395158;19;20003;-76
2022/08/30 14:37:11;;;;;;;1.70;1.40;;;;;;;;;;7394526;19;20018;-77
2022/08/30 14:39:37;;;;;;;1.60;1.50;;;;;;;;;;7392284;19;20103;-77
2022/08/30 14:42:03;;;;;;;2.03;1.77;;;;;;;;;;7394815;19;20428;-77
2022/08/30 14:44:28;;;;;;;1.95;1.40;;;;;;;;;;7393624;19;20002;-76
2022/08/30 14:46:54;;;;;;;1.50;1.40;;;;;;;;;;7394518;19;20022;-77
2022/08/30 14:49:20;;;;;;;1.88;1.75;;;;;;;;;;7395509;19;19995;-77
2022/08/30 14:51:47;;;;;;;2.25;1.65;;;;;;;;;;7392843;19;20010;-77
2022/08/30 14:54:13;;;;;;;2.60;1.42;;;;;;;;;;7395356;19;20460;-76
2022/08/30 14:56:40;;;;;;;2.80;1.48;;;;;;;;;;7391291;19;20031;-76
2022/08/30 14:59:06;;;;;;;2.58;1.90;;;;;;;;;;7396358;19;20440;-77
2022/08/30 15:01:32;;;;;;;1.63;1.52;;;;;;;;;;7395070;19;20002;-77
2022/08/30 15:03:58;;;;;;;1.80;1.70;;;;;;;;;;7384814;19;20007;-76
2022/08/30 15:06:24;;;;;;;1.80;1.45;;;;;;;;;;7391559;19;20027;-77
2022/08/30 15:08:50;;;;;;;2.92;1.60;;;;;;;;;;7393979;19;20014;-77
2022/08/30 15:11:18;;;;;;;1.77;1.42;;;;;;;;;;7393423;19;20022;-77
2022/08/30 15:13:43;;;;;;;1.75;1.63;;;;;;;;;;7393566;19;20037;-77
2022/08/30 15:16:15;;;;;;;3.28;1.65;;;;;;;;;;7391445;19;19995;-77
2022/08/30 15:18:40;;;;;;;1.60;1.50;;;;;;;;;;7394202;19;20019;-77
2022/08/30 15:21:06;;;;;;;3.55;1.80;;;;;;;;;;7394249;19;20003;-76
2022/08/30 15:23:31;;;;;;;1.83;1.55;;;;;;;;;;7391770;19;19998;-77
2022/08/30 15:25:57;;;;;;;2.00;1.50;;;;;;;;;;7390607;19;20066;-77
2022/08/30 15:28:22;;;;;;;1.63;1.52;;;;;;;;;;7392263;19;20547;-77
2022/08/30 15:30:48;;;;;;;1.42;1.33;;;;;;;;;;7392180;19;19999;-77
2022/08/30 15:33:14;;;;;;;1.52;1.42;;;;;;;;;;7392967;19;20011;-77
2022/08/30 15:35:39;;;;;;;1.48;1.38;;;;;;;;;;7392715;19;20072;-78
2022/08/30 15:38:05;;;;;;;1.70;1.60;;;;;;;;;;7393758;19;20014;-77
2022/08/30 15:40:33;;;;;;;3.10;1.73;;;;;;;;;;7394098;19;20031;-77
2022/08/30 15:43:01;;;;;;;2.13;1.42;;;;;;;;;;7391422;19;20015;-78
2022/08/30 15:45:30;;;;;;;3.03;1.40;;;;;;;;;;7388669;19;20006;-77
2022/08/30 15:47:58;;;;;;;1.40;1.30;;;;;;;;;;7387051;19;20044;-77
2022/08/30 15:50:24;;;;;;;2.60;1.38;;;;;;;;;;7390036;19;20338;-77
2022/08/30 15:52:50;;;;;;;3.88;1.42;;;;;;;;;;7393647;19;20014;-78
2022/08/30 15:55:15;;;;;;;1.50;1.38;;;;;;;;;;7393319;19;20402;-77
2022/08/30 15:57:40;;;;;;;2.00;1.80;;;;;;;;;;7392366;19;20017;-77
2022/08/30 16:00:08;;;;;;;2.60;1.30;;;;;;;;;;7392685;19;20002;-77
2022/08/30 16:02:33;;;;;;;2.50;1.35;;;;;;;;;;7384950;19;20031;-77
2022/08/30 16:04:59;;;;;;;1.50;1.40;;;;;;;;;;7393913;19;20006;-77
2022/08/30 16:07:24;;;;;;;3.65;1.75;;;;;;;;;;7390453;19;20022;-77
2022/08/30 16:09:49;;;;;;;1.90;1.55;;;;;;;;;;7389727;19;20062;-78
2022/08/30 16:12:19;;;;;;;1.65;1.55;;;;;;;;;;7388420;19;20009;-78
2022/08/30 16:14:44;;;;;;;1.85;1.50;;;;;;;;;;7388354;19;20074;-77
2022/08/30 16:17:10;;;;;;;1.40;1.30;;;;;;;;;;7387676;19;19998;-77
2022/08/30 16:19:36;;;;;;;2.25;1.60;;;;;;;;;;7389549;19;20011;-76
2022/08/30 16:22:01;;;;;;;2.67;1.75;;;;;;;;;;7391622;19;19995;-77
2022/08/30 16:24:27;;;;;;;3.90;1.70;;;;;;;;;;7390632;19;20004;-77
2022/08/30 16:26:53;;;;;;;1.90;1.40;;;;;;;;;;7392071;19;20028;-76
2022/08/30 16:29:19;;;;;;;2.83;1.50;;;;;;;;;;7387419;19;20390;-77
2022/08/30 16:31:44;;;;;;;1.50;1.40;;;;;;;;;;7390458;19;20015;-76
2022/08/30 16:34:11;;;;;;;4.03;1.50;;;;;;;;;;7390700;19;20884;-77
2022/08/30 16:36:38;;;;;;;1.52;1.42;;;;;;;;;;7390735;19;20007;-77
2022/08/30 16:39:05;;;;;;;5.95;4.10;;;;;;;;;;7391352;19;20089;-77
2022/08/30 16:41:30;;;;;;;6.90;4.18;;;;;;;;;;7391480;19;20010;-77
2022/08/30 16:43:56;;;;;;;9.13;7.35;;;;;;;;;;7390582;19;20002;-76
2022/08/30 16:46:24;;;;;;;13.73;10.18;;;;;;;;;;7391110;19;20006;-76
2022/08/30 16:48:49;;;;;;;11.95;8.23;;;;;;;;;;7390330;19;19995;-77
2022/08/30 16:51:18;;;;;;;5.85;4.53;;;;;;;;;;7388006;19;20348;-77
2022/08/30 16:53:44;;;;;;;4.22;2.88;;;;;;;;;;7389411;19;20099;-76
2022/08/30 16:56:20;;;;;;;4.80;2.40;;;;;;;;;;7388427;19;20006;-77
2022/08/30 16:58:47;;;;;;;3.20;2.00;;;;;;;;;;7390634;19;20014;-76
2022/08/30 17:01:12;;;;;;;2.03;1.83;;;;;;;;;;7388208;19;20003;-76
2022/08/30 17:03:38;;;;;;;4.68;1.75;;;;;;;;;;7385687;19;20461;-76
2022/08/30 17:06:04;;;;;;;2.40;2.03;;;;;;;;;;7385783;19;20486;-77
2022/08/30 17:08:30;;;;;;;1.85;1.67;;;;;;;;;;7389080;19;20015;-76
2022/08/30 17:10:55;;;;;;;3.17;1.75;;;;;;;;;;7385804;19;20022;-76
2022/08/30 17:13:21;;;;;;;2.08;1.80;;;;;;;;;;7390067;19;20007;-76
2022/08/30 17:15:46;;;;;;;2.35;1.88;;;;;;;;;;7388072;19;20020;-76
2022/08/30 17:18:14;;;;;;;2.58;1.95;;;;;;;;;;7388023;19;20018;-76
2022/08/30 17:20:40;;;;;;;2.80;1.80;;;;;;;;;;7388517;19;20006;-76
2022/08/30 17:23:05;;;;;;;1.73;1.63;;;;;;;;;;7386566;19;20006;-76
2022/08/30 17:25:31;;;;;;;2.47;1.73;;;;;;;;;;7377573;19;20447;-77
2022/08/30 17:27:56;;;;;;;4.75;1.85;;;;;;;;;;7386349;19;20020;-76
2022/08/30 17:30:22;;;;;;;1.75;1.65;;;;;;;;;;7386281;19;20031;-78
2022/08/30 17:32:47;;;;;;;2.10;1.90;;;;;;;;;;7394908;19;20302;-77
2022/08/30 17:35:14;;;;;;;5.10;2.00;;;;;;;;;;7390006;19;20022;-76
2022/08/30 17:37:40;;;;;;;3.88;2.65;;;;;;;;;;7391204;19;20011;-76
2022/08/30 17:40:06;;;;;;;2.92;2.40;;;;;;;;;;7396882;19;20058;-76
2022/08/30 17:42:32;;;;;;;3.10;2.05;;;;;;;;;;7390496;19;20010;-76
2022/08/30 17:45:00;;;;;;;1.98;1.73;;;;;;;;;;7395250;19;20034;-76
2022/08/30 17:47:26;;;;;;;3.47;2.10;;;;;;;;;;7395050;19;20468;-77
2022/08/30 17:49:51;;;;;;;2.17;1.77;;;;;;;;;;7388582;19;20007;-75
2022/08/30 17:52:16;;;;;;;2.35;1.90;;;;;;;;;;7392843;19;20036;-76
2022/08/30 17:54:42;;;;;;;3.85;2.10;;;;;;;;;;7395037;19;20023;-76
2022/08/30 17:57:10;;;;;;;3.20;2.10;;;;;;;;;;7393948;19;20448;-78
2022/08/30 17:59:35;;;;;;;2.20;1.90;;;;;;;;;;7394919;19;20074;-77
2022/08/30 18:02:01;;;;;;;3.55;2.20;;;;;;;;;;7393701;19;20468;-75
2022/08/30 18:04:28;;;;;;;2.63;1.80;;;;;;;;;;7385650;19;20017;-76
2022/08/30 18:06:54;;;;;;;6.75;2.20;;;;;;;;;;7393075;19;20037;-75
2022/08/30 18:09:20;;;;;;;2.35;1.98;;;;;;;;;;7392610;19;20035;-74
2022/08/30 18:11:45;;;;;;;2.25;2.00;;;;;;;;;;7392133;19;20021;-77
2022/08/30 18:14:11;;;;;;;2.25;2.00;;;;;;;;;;7395766;19;20010;-76
2022/08/30 18:16:37;;;;;;;2.40;1.85;;;;;;;;;;7394742;19;20003;-76